Time;durP1;ratioP1;P1;durP2;ratioP2;P2;SDS_P1;SDS_P2;PMS_P1;PMS_P2;Temp;Humidity;BMP_temperature;BMP_pressure;BME280_temperature;BME280_humidity;BME280_pressure;Samples;Min_cycle;Max_cycle;Signal;HPM_P1;HPM_P2
2023/10/13 00:00:42;;;;;;;;;18.40;16.80;;;;;18.17;77.28;99568.63;5116792;28;8811;-58
2023/10/13 00:03:14;;;;;;;;;15.40;13.00;;;;;18.16;76.81;99566.97;5110896;28;8896;-58
2023/10/13 00:05:42;;;;;;;;;12.60;9.80;;;;;18.18;76.92;99564.91;5090691;28;8893;-59
2023/10/13 00:08:10;;;;;;;;;15.80;15.40;;;;;18.19;76.63;99563.03;5103256;28;8818;-59
2023/10/13 00:10:38;;;;;;;;;15.00;12.80;;;;;18.21;77.19;99559.16;5098592;28;8838;-61
2023/10/13 00:13:12;;;;;;;;;18.40;15.20;;;;;18.22;76.83;99555.44;5098433;28;8826;-60
2023/10/13 00:15:45;;;;;;;;;8.20;7.00;;;;;18.21;77.03;99556.47;5099142;28;9503;-58
2023/10/13 00:18:14;;;;;;;;;15.00;13.00;;;;;18.22;76.71;99552.75;5098476;28;8859;-60
2023/10/13 00:20:47;;;;;;;;;14.80;12.00;;;;;18.20;76.96;99544.00;5098426;28;8826;-60
2023/10/13 00:23:20;;;;;;;;;11.20;10.80;;;;;18.19;77.19;99550.41;5098146;28;8872;-61
2023/10/13 00:25:56;;;;;;;;;16.00;13.00;;;;;18.18;76.78;99548.75;5097538;28;8973;-61
2023/10/13 00:28:26;;;;;;;;;15.00;12.20;;;;;18.19;76.71;99539.63;5098738;28;8899;-59
2023/10/13 00:31:00;;;;;;;;;9.60;8.20;;;;;18.19;77.05;99545.03;5098743;28;8838;-59
2023/10/13 00:33:32;;;;;;;;;16.20;15.20;;;;;18.20;76.91;99541.31;5098485;28;8834;-59
2023/10/13 00:36:01;;;;;;;;;16.80;12.20;;;;;18.19;77.10;99538.78;5098859;28;9492;-59
2023/10/13 00:38:28;;;;;;;;;9.20;8.20;;;;;18.18;76.89;99535.28;5098568;28;8992;-59
2023/10/13 00:41:03;;;;;;;;;12.60;10.80;;;;;18.20;76.96;99525.13;5097890;28;8838;-58
2023/10/13 00:43:37;;;;;;;;;9.40;9.00;;;;;18.20;77.26;99522.44;5098295;28;9550;-59
2023/10/13 00:46:07;;;;;;;;;9.00;9.00;;;;;18.18;76.94;99532.56;5097736;28;8850;-61
2023/10/13 00:48:42;;;;;;;;;17.40;13.00;;;;;18.21;77.25;99526.81;5098640;28;8919;-60
2023/10/13 00:51:16;;;;;;;;;11.20;10.00;;;;;18.24;76.93;99521.06;5098607;28;8810;-60
2023/10/13 00:53:44;;;;;;;;;9.20;9.20;;;;;18.26;77.17;99519.03;5098233;28;8850;-59
2023/10/13 00:56:18;;;;;;;;;9.60;9.20;;;;;18.25;77.15;99506.56;5098327;28;8847;-61
2023/10/13 00:58:50;;;;;;;;;9.00;9.00;;;;;18.26;77.02;99508.25;5097597;28;8850;-59
2023/10/13 01:01:21;;;;;;;;;13.80;12.20;;;;;18.26;77.48;99510.09;5098266;28;9602;-59
2023/10/13 01:03:50;;;;;;;;;14.40;11.40;;;;;18.25;77.02;99511.97;5097725;28;8829;-59
2023/10/13 01:06:17;;;;;;;;;11.60;9.60;;;;;18.26;77.43;99512.78;5097945;28;8833;-59
2023/10/13 01:08:45;;;;;;;;;12.60;10.60;;;;;18.25;76.81;99511.97;5078486;28;8836;-58
2023/10/13 01:11:13;;;;;;;;;10.00;8.20;;;;;18.24;77.25;99515.69;5099053;28;8840;-60
2023/10/13 01:13:41;;;;;;;;;13.00;12.00;;;;;18.25;77.20;99509.28;5106339;28;8829;-61
2023/10/13 01:16:08;;;;;;;;;12.40;9.80;;;;;18.24;77.35;99499.50;5098215;28;8957;-60
2023/10/13 01:18:47;;;;;;;;;8.60;8.20;;;;;18.25;77.06;99506.56;5097229;28;8818;-58
2023/10/13 01:21:15;;;;;;;;;9.80;9.20;;;;;18.27;77.19;99498.28;5097459;28;8847;-59
2023/10/13 01:23:43;;;;;;;;;13.00;10.80;;;;;18.27;77.16;99493.75;5097838;28;8819;-60
2023/10/13 01:26:12;;;;;;;;;12.20;11.20;;;;;18.26;77.19;99489.38;5097350;28;8846;-61
2023/10/13 01:28:50;;;;;;;;;14.00;10.80;;;;;18.25;76.87;99490.41;5097112;28;9504;-61
2023/10/13 01:31:29;;;;;;;;;14.60;12.00;;;;;18.23;77.23;99481.63;5097188;28;8803;-59
2023/10/13 01:33:58;;;;;;;;;12.40;12.20;;;;;18.21;77.66;99483.69;5097268;28;8915;-59
2023/10/13 01:36:25;;;;;;;;;10.80;9.40;;;;;18.18;77.50;99477.81;5097145;28;8826;-61
2023/10/13 01:38:53;;;;;;;;;13.00;9.60;;;;;18.19;77.89;99480.34;5097707;28;8849;-61
2023/10/13 01:41:20;;;;;;;;;11.60;11.20;;;;;18.18;77.65;99478.66;5096926;28;8830;-58
2023/10/13 01:43:48;;;;;;;;;10.60;10.60;;;;;18.19;77.91;99468.69;5097225;28;9479;-60
2023/10/13 01:49:25;;;;;;;;;10.80;10.00;;;;;18.18;77.60;99457.09;5104340;28;8768;-58
2023/10/13 01:51:52;;;;;;;;;12.60;10.40;;;;;18.18;77.97;99454.41;5097348;28;8848;-58
2023/10/13 01:54:21;;;;;;;;;13.00;12.80;;;;;18.19;77.66;99460.63;5097016;28;8869;-58
2023/10/13 01:56:48;;;;;;;;;9.00;9.00;;;;;18.19;77.73;99453.38;5096780;28;8814;-58
2023/10/13 01:59:16;;;;;;;;;12.60;11.20;;;;;18.17;78.08;99447.34;5096404;28;8826;-60
2023/10/13 02:01:43;;;;;;;;;2.20;2.20;;;;;18.16;77.86;99447.50;5096772;28;8894;-58
2023/10/13 02:04:11;;;;;;;;;12.20;9.60;;;;;18.14;77.66;99450.38;5096589;28;8830;-59
2023/10/13 02:06:38;;;;;;;;;11.60;10.40;;;;;18.13;77.85;99446.00;5095821;28;8934;-58
2023/10/13 02:09:12;;;;;;;;;13.80;12.60;;;;;18.13;78.32;99440.63;5096587;28;8834;-58
2023/10/13 02:11:40;;;;;;;;;9.60;9.20;;;;;18.13;77.86;99443.31;5096477;28;8806;-60
2023/10/13 02:14:10;;;;;;;;;8.80;8.60;;;;;18.14;78.02;99433.38;5108780;28;8804;-59
2023/10/13 02:16:37;;;;;;;;;9.20;7.40;;;;;18.15;78.08;99435.88;5112177;28;8852;-58
2023/10/13 02:19:05;;;;;;;;;12.20;11.60;;;;;18.17;77.67;99441.94;5104653;28;9473;-60
2023/10/13 02:21:31;;;;;;;;;12.40;10.20;;;;;18.18;78.04;99432.84;5116676;28;8909;-58
2023/10/13 02:24:03;;;;;;;;;11.00;9.80;;;;;18.20;77.91;99425.41;5103452;28;8822;-60
2023/10/13 02:26:30;;;;;;;;;11.40;9.60;;;;;18.22;77.76;99419.84;5099645;28;8816;-61
2023/10/13 02:28:58;;;;;;;;;10.80;9.40;;;;;18.23;77.83;99418.81;5116949;28;8820;-60
2023/10/13 02:31:25;;;;;;;;;15.80;15.80;;;;;18.26;78.08;99418.44;5115672;28;8816;-59
2023/10/13 02:33:54;;;;;;;;;13.00;10.00;;;;;18.27;77.46;99410.16;5107040;28;8816;-58
2023/10/13 02:36:22;;;;;;;;;13.00;12.00;;;;;18.30;77.72;99404.44;5116459;28;9584;-59
2023/10/13 02:38:50;;;;;;;;;12.40;11.60;;;;;18.31;77.39;99397.19;5116259;28;8832;-60
2023/10/13 02:41:25;;;;;;;;;13.00;11.20;;;;;18.32;77.49;99394.31;5106382;28;8830;-59
2023/10/13 02:43:52;;;;;;;;;7.00;6.60;;;;;18.31;77.38;99387.25;5095827;28;8810;-59
2023/10/13 02:46:21;;;;;;;;;11.00;9.60;;;;;18.31;77.65;99392.66;5095917;28;8814;-61
2023/10/13 02:48:52;;;;;;;;;8.60;8.60;;;;;18.30;77.58;99380.16;5095644;28;8952;-59
2023/10/13 02:51:22;;;;;;;;;8.20;8.20;;;;;18.29;77.56;99381.16;5096110;28;8819;-60
2023/10/13 02:53:49;;;;;;;;;10.00;9.40;;;;;18.30;77.53;99368.56;5095852;28;8833;-59
2023/10/13 02:56:20;;;;;;;;;10.20;9.80;;;;;18.29;77.74;99377.66;5095269;28;8819;-61
2023/10/13 02:58:53;;;;;;;;;11.60;10.40;;;;;18.32;77.90;99382.69;5095339;28;8810;-58
2023/10/13 03:01:20;;;;;;;;;7.40;7.40;;;;;18.33;77.86;99373.56;5095697;28;8822;-59
2023/10/13 03:03:53;;;;;;;;;9.60;8.20;;;;;18.33;77.76;99373.56;5095770;28;8915;-59
2023/10/13 03:06:23;;;;;;;;;10.40;9.40;;;;;18.32;77.61;99367.34;5095803;28;8822;-58
2023/10/13 03:08:51;;;;;;;;;9.00;7.80;;;;;18.33;77.49;99369.03;5095636;28;8825;-59
2023/10/13 03:11:22;;;;;;;;;9.00;7.80;;;;;18.33;77.75;99362.78;5095169;28;8856;-60
2023/10/13 03:13:52;;;;;;;;;11.20;9.80;;;;;18.34;77.29;99368.00;5095564;28;9519;-58
2023/10/13 03:16:19;;;;;;;;;8.20;7.00;;;;;18.34;77.73;99364.47;5095472;28;8826;-61
2023/10/13 03:18:53;;;;;;;;;12.40;11.20;;;;;18.33;77.34;99360.09;5094762;28;9636;-60
2023/10/13 03:21:28;;;;;;;;;11.60;10.80;;;;;18.35;78.07;99361.59;5094935;28;8826;-61
2023/10/13 03:23:55;;;;;;;;;8.80;7.00;;;;;18.35;77.35;99350.81;5094982;28;8822;-61
2023/10/13 03:26:22;;;;;;;;;10.60;9.60;;;;;18.36;77.90;99343.56;5095313;28;8834;-59
2023/10/13 03:28:52;;;;;;;;;7.00;6.40;;;;;18.35;77.51;99334.63;5095120;28;8876;-61
2023/10/13 03:31:18;;;;;;;;;9.20;9.00;;;;;18.33;77.26;99339.38;5094803;28;8810;-60
2023/10/13 03:33:47;;;;;;;;;8.80;8.80;;;;;18.31;77.55;99329.78;5095183;28;9503;-59
2023/10/13 03:36:44;;;;;;;;;7.80;7.40;;;;;18.25;78.24;99330.50;5094332;28;8814;-58
2023/10/13 03:39:07;;;;;;;;;7.80;7.40;;;;;18.14;78.01;99318.31;5095661;28;8849;-61
2023/10/13 03:41:38;;;;;;;;;12.20;12.20;;;;;18.03;78.94;99321.47;5100990;28;9558;-59
2023/10/13 03:44:12;;;;;;;;;9.20;9.20;;;;;17.95;79.15;99320.72;5106638;28;8828;-61
2023/10/13 03:46:42;;;;;;;;;10.00;9.00;;;;;17.89;78.69;99324.97;5114767;28;8827;-59
2023/10/13 03:49:12;;;;;;;;;15.00;11.60;;;;;17.83;79.41;99322.19;5102840;28;8829;-57
2023/10/13 03:51:40;;;;;;;;;9.40;7.40;;;;;17.80;79.38;99314.47;5094474;28;8845;-59
2023/10/13 03:54:08;;;;;;;;;11.00;10.00;;;;;17.74;79.71;99313.34;5094623;28;8806;-58
2023/10/13 03:56:39;;;;;;;;;12.20;12.20;;;;;17.72;79.57;99299.22;5094630;28;8837;-59
2023/10/13 03:59:09;;;;;;;;;6.60;5.20;;;;;17.70;79.60;99305.81;5094260;28;8903;-59
2023/10/13 04:01:46;;;;;;;;;9.80;9.60;;;;;17.67;79.66;99304.31;5094251;28;9484;-58
2023/10/13 04:04:15;;;;;;;;;11.60;9.60;;;;;17.67;79.97;99293.53;5094594;28;8972;-57
2023/10/13 04:06:51;;;;;;;;;6.00;6.00;;;;;17.66;80.08;99286.47;5093640;28;8845;-60
2023/10/13 04:13:10;;;;;;;;;11.20;9.80;;;;;17.65;79.86;99282.13;5089409;28;8842;-58
2023/10/13 04:15:23;;;;;;;;;7.00;7.00;;;;;17.64;79.62;99269.69;5094545;28;9788;-59
2023/10/13 04:17:51;;;;;;;;;10.80;10.40;;;;;17.63;80.07;99273.38;5094094;28;8834;-58
2023/10/13 04:20:38;;;;;;;;;10.00;9.60;;;;;17.63;79.97;99269.84;5094177;28;8846;-60
2023/10/13 04:23:25;;;;;;;;;6.20;6.20;;;;;17.63;79.72;99254.50;5093881;28;8873;-59
2023/10/13 04:26:07;;;;;;;;;9.60;6.80;;;;;17.65;79.74;99257.03;5094031;28;8838;-58
2023/10/13 04:28:37;;;;;;;;;11.20;10.40;;;;;17.64;80.09;99248.13;5093432;28;9127;-59
2023/10/13 04:31:11;;;;;;;;;12.80;10.80;;;;;17.67;79.83;99255.00;5093836;28;9856;-59
2023/10/13 04:33:51;;;;;;;;;10.40;10.20;;;;;17.70;79.83;99246.56;5094390;28;8850;-60
2023/10/13 04:36:36;;;;;;;;;10.40;10.00;;;;;17.73;79.61;99240.78;5094629;28;8810;-58
2023/10/13 04:39:10;;;;;;;;;9.40;9.20;;;;;17.75;79.44;99226.13;5093987;28;8830;-59
2023/10/13 04:41:39;;;;;;;;;13.00;10.20;;;;;17.79;79.49;99223.91;5093800;28;8810;-58
2023/10/13 04:44:48;;;;;;;;;12.40;10.00;;;;;17.82;79.17;99213.59;5093680;28;8834;-58
2023/10/13 04:47:17;;;;;;;;;7.00;6.00;;;;;17.86;79.46;99217.59;5093899;28;8846;-57
2023/10/13 04:50:00;;;;;;;;;6.20;6.00;;;;;17.90;79.26;99220.75;5097319;28;8826;-58
2023/10/13 04:58:10;;;;;;;;;11.00;10.00;;;;;17.99;79.38;99214.25;5097114;28;8853;-58
2023/10/13 05:01:09;;;;;;;;;10.00;10.00;;;;;18.01;79.40;99202.25;5097194;28;8852;-59
2023/10/13 05:04:21;;;;;;;;;13.00;9.20;;;;;18.06;79.58;99196.31;5097759;28;8822;-59
2023/10/13 05:46:20;;;;;;;;;10.00;10.00;;;;;18.05;80.47;99170.34;5096338;28;8858;-58
2023/10/13 05:48:54;;;;;;;;;9.00;9.00;;;;;18.03;80.68;99162.47;5095606;28;8834;-58
2023/10/13 05:51:43;;;;;;;;;7.40;7.00;;;;;18.03;80.98;99167.03;5095943;28;8868;-61
2023/10/13 06:29:56;;;;;;;;;1.00;1.00;;;;;17.96;82.38;99198.44;5061518;28;8838;-60
2023/10/13 06:32:25;;;;;;;;;9.00;7.80;;;;;17.97;82.77;99197.41;5095246;28;8830;-57
2023/10/13 06:34:57;;;;;;;;;7.00;7.00;;;;;17.96;83.03;99212.75;5094840;28;8832;-60
2023/10/13 06:37:26;;;;;;;;;6.80;6.80;;;;;17.96;83.13;99207.38;5095173;28;8841;-58
2023/10/13 06:39:56;;;;;;;;;6.80;6.60;;;;;17.98;82.79;99201.81;5094967;28;8822;-59
2023/10/13 06:42:27;;;;;;;;;5.20;5.20;;;;;17.98;83.08;99201.81;5093920;28;8822;-60
2023/10/13 06:44:55;;;;;;;;;10.00;9.80;;;;;17.99;83.37;99195.38;5093925;28;8984;-61
2023/10/13 06:47:24;;;;;;;;;6.00;6.00;;;;;17.98;83.27;99183.75;5093367;28;8838;-58
2023/10/13 06:49:54;;;;;;;;;8.60;6.80;;;;;18.00;83.47;99186.28;5093720;28;8822;-59
2023/10/13 06:52:22;;;;;;;;;6.20;5.40;;;;;18.00;83.15;99172.81;5093992;28;8845;-59
2023/10/13 06:54:51;;;;;;;;;6.00;6.00;;;;;18.00;83.15;99168.22;5093704;28;9932;-60
2023/10/13 06:57:21;;;;;;;;;6.60;6.40;;;;;18.00;82.88;99160.16;5093771;28;8841;-58
2023/10/13 06:59:49;;;;;;;;;4.40;4.40;;;;;18.01;83.31;99142.97;5094575;28;9798;-58
2023/10/13 07:02:21;;;;;;;;;3.00;0.00;;;;;18.02;83.58;99143.81;5094596;28;8830;-58
2023/10/13 07:05:07;;;;;;;;;8.60;6.60;;;;;18.03;83.12;99137.38;5074459;28;8835;-59
2023/10/13 07:07:36;;;;;;;;;5.20;4.00;;;;;18.04;83.41;99129.13;5073902;28;8952;-57
2023/10/13 07:10:07;;;;;;;;;4.00;3.40;;;;;18.06;83.45;99132.44;5096305;28;9589;-57
2023/10/13 07:12:35;;;;;;;;;3.00;3.00;;;;;18.07;83.20;99139.50;5095357;28;8857;-61
2023/10/13 07:15:10;;;;;;;;;4.00;4.00;;;;;18.09;83.52;99129.41;5104555;28;8922;-57
2023/10/13 07:17:39;;;;;;;;;6.40;6.20;;;;;18.11;83.43;99121.94;5093255;28;8828;-59
2023/10/13 07:20:15;;;;;;;;;3.80;3.80;;;;;18.14;83.14;99137.72;5093268;28;8903;-60
2023/10/13 07:22:54;;;;;;;;;6.60;6.60;;;;;18.21;83.60;99130.56;5093818;28;8849;-59
2023/10/13 07:25:25;;;;;;;;;8.20;7.00;;;;;18.26;82.89;99133.53;5093447;28;8821;-58
2023/10/13 07:27:56;;;;;;;;;9.40;7.80;;;;;18.32;83.09;99123.88;5093583;28;8910;-60
2023/10/13 07:30:27;;;;;;;;;7.00;6.20;;;;;18.38;83.03;99120.41;5093329;28;8861;-57
2023/10/13 07:32:57;;;;;;;;;9.00;7.00;;;;;18.45;82.71;99119.44;5093453;28;8822;-57
2023/10/13 07:35:30;;;;;;;;;9.40;8.20;;;;;18.56;82.42;99113.56;5093135;28;8837;-56
2023/10/13 07:37:59;;;;;;;;;9.00;9.00;;;;;18.68;82.05;99116.56;5093060;28;9031;-59
2023/10/13 07:43:10;;;;;;;;;4.00;4.00;;;;;18.92;81.67;99122.41;5091347;28;8958;-57
2023/10/13 07:45:39;;;;;;;;;10.00;8.20;;;;;19.03;81.34;99118.34;5094000;28;8838;-57
2023/10/13 07:48:12;;;;;;;;;8.20;8.20;;;;;19.13;80.82;99110.72;5093746;28;8846;-59
2023/10/13 07:50:40;;;;;;;;;6.80;6.80;;;;;19.22;80.59;99113.13;5093618;28;8826;-59
2023/10/13 07:53:18;;;;;;;;;8.60;6.80;;;;;19.29;80.53;99105.91;5093834;28;9541;-58
2023/10/13 07:55:48;;;;;;;;;9.80;9.00;;;;;19.34;80.28;99098.03;5093221;28;8837;-58
2023/10/13 07:58:16;;;;;;;;;8.80;8.60;;;;;19.39;80.26;99098.28;5093215;28;8837;-58
2023/10/13 08:00:54;;;;;;;;;6.80;6.80;;;;;19.41;80.13;99096.19;5093876;28;8895;-57
2023/10/13 08:03:35;;;;;;;;;5.20;5.20;;;;;19.46;80.44;99088.34;5093123;28;8849;-58
2023/10/13 08:06:06;;;;;;;;;2.80;2.20;;;;;19.51;80.08;99083.16;5093093;28;8834;-58
2023/10/13 08:08:39;;;;;;;;;10.80;9.20;;;;;19.57;80.27;99095.88;5091853;28;8834;-59
2023/10/13 08:11:11;;;;;;;;;7.00;7.00;;;;;19.61;80.26;99082.81;5093465;28;8826;-58
2023/10/13 08:13:46;;;;;;;;;9.80;8.60;;;;;19.64;80.19;99088.63;5094811;28;8830;-57
2023/10/13 08:16:45;;;;;;;;;9.00;8.00;;;;;19.70;80.20;99084.28;5106345;28;8826;-58
2023/10/13 08:19:15;;;;;;;;;10.00;6.80;;;;;19.75;79.80;99076.44;5091847;28;8838;-56
2023/10/13 08:21:49;;;;;;;;;2.80;0.60;;;;;19.81;79.89;99083.75;5092928;28;8818;-57
2023/10/13 08:24:24;;;;;;;;;6.40;6.00;;;;;19.84;79.44;99070.66;5094730;28;8834;-57
2023/10/13 08:26:57;;;;;;;;;10.00;10.00;;;;;19.87;79.79;99078.34;5095563;28;8849;-57
2023/10/13 08:35:10;;;;;;;;;8.40;8.00;;;;;19.88;79.98;99058.41;5095063;28;8952;-57
2023/10/13 08:37:59;;;;;;;;;8.00;7.00;;;;;19.87;79.68;99070.25;5096627;28;8833;-57
2023/10/13 08:41:25;;;;;;;;;9.20;7.00;;;;;19.86;79.82;99057.78;5096995;28;8887;-57
2023/10/13 08:43:45;;;;;;;;;6.00;5.40;;;;;19.89;79.98;99048.44;5096937;28;8822;-58
2023/10/13 08:46:27;;;;;;;;;9.40;8.20;;;;;19.93;79.64;99057.78;5097099;28;8896;-59
2023/10/13 08:49:03;;;;;;;;;6.60;6.60;;;;;20.00;79.99;99059.50;5096909;28;8876;-57
2023/10/13 08:51:43;;;;;;;;;8.60;7.60;;;;;20.12;79.56;99044.38;5097321;28;8908;-57
2023/10/13 08:54:19;;;;;;;;;7.20;7.20;;;;;20.25;79.29;99062.50;5096793;28;8830;-58
2023/10/13 08:56:54;;;;;;;;;8.00;7.60;;;;;20.39;78.50;99056.91;5096294;28;8849;-58
2023/10/13 08:59:38;;;;;;;;;7.80;5.60;;;;;20.52;78.26;99040.69;5096237;28;8830;-57
2023/10/13 09:02:17;;;;;;;;;9.20;9.20;;;;;20.63;77.87;99052.78;5096429;28;8839;-59
2023/10/13 09:04:59;;;;;;;;;8.60;6.80;;;;;20.69;78.02;99023.00;5096005;28;8830;-58
2023/10/13 09:07:28;;;;;;;;;9.00;6.60;;;;;20.75;77.40;99044.63;5095986;28;8836;-57
2023/10/13 09:10:11;;;;;;;;;8.00;8.00;;;;;20.82;77.41;99033.84;5095178;28;8830;-56
2023/10/13 09:13:00;;;;;;;;;8.00;8.00;;;;;20.94;77.19;99037.59;5074657;28;8855;-58
2023/10/13 09:15:59;;;;;;;;;7.40;7.40;;;;;21.05;76.54;99034.25;5074364;28;8860;-59
2023/10/13 09:18:15;;;;;;;;;5.00;5.00;;;;;21.14;76.16;99016.72;5074347;28;8848;-57
2023/10/13 09:20:43;;;;;;;;;6.60;6.60;;;;;21.23;75.66;99012.75;5111544;28;8925;-57
2023/10/13 09:23:12;;;;;;;;;10.00;9.20;;;;;21.34;75.26;99017.53;5107539;28;8976;-58
2023/10/13 09:25:53;;;;;;;;;8.40;7.20;;;;;21.45;74.99;99003.31;5096982;28;8818;-57
2023/10/13 09:28:22;;;;;;;;;5.00;5.00;;;;;21.62;74.65;99009.91;5112968;28;8804;-57
2023/10/13 09:30:49;;;;;;;;;8.20;7.00;;;;;21.81;74.41;99014.44;5095467;28;9602;-57
2023/10/13 09:33:20;;;;;;;;;7.00;7.00;;;;;21.87;73.65;99000.03;5097296;28;8825;-58
2023/10/13 09:35:49;;;;;;;;;10.00;8.20;;;;;21.87;73.58;98997.31;5094749;28;8834;-58
2023/10/13 09:38:17;;;;;;;;;7.80;7.20;;;;;21.86;73.85;99023.59;5095559;28;8891;-57
2023/10/13 09:40:49;;;;;;;;;10.40;10.00;;;;;21.84;73.41;98995.88;5095641;28;8945;-57
2023/10/13 09:43:19;;;;;;;;;7.80;7.80;;;;;21.87;73.25;98991.91;5095310;28;8842;-57
2023/10/13 09:46:01;;;;;;;;;6.20;6.20;;;;;21.95;72.61;98961.81;5094820;28;9511;-57
2023/10/13 09:48:31;;;;;;;;;7.00;7.00;;;;;22.06;72.89;98975.50;5095513;28;8945;-57
2023/10/13 09:51:00;;;;;;;;;6.60;6.60;;;;;22.19;72.15;98978.16;5094971;28;9043;-58
2023/10/13 09:53:27;;;;;;;;;7.00;6.40;;;;;22.38;71.74;98995.34;5094870;28;8858;-57
2023/10/13 09:55:55;;;;;;;;;8.60;8.00;;;;;22.55;71.46;98991.03;5094412;28;8838;-58
2023/10/13 09:58:28;;;;;;;;;8.20;8.00;;;;;22.71;70.88;98980.47;5094029;28;8856;-57
2023/10/13 10:01:06;;;;;;;;;6.40;6.40;;;;;22.91;69.94;98972.13;5093848;28;8907;-57
2023/10/13 10:03:39;;;;;;;;;8.00;6.80;;;;;23.00;69.14;98978.94;5094303;28;8853;-58
2023/10/13 10:06:14;;;;;;;;;8.20;8.00;;;;;23.12;68.27;98966.25;5094406;28;9524;-60
2023/10/13 10:08:48;;;;;;;;;7.40;5.40;;;;;23.42;67.75;98961.75;5093886;28;8873;-58
2023/10/13 10:11:16;;;;;;;;;8.40;8.40;;;;;23.68;66.40;98975.03;5094043;28;8853;-58
2023/10/13 10:13:43;;;;;;;;;9.00;8.20;;;;;23.90;65.50;98976.22;5094159;28;8861;-59
2023/10/13 10:16:14;;;;;;;;;9.80;8.60;;;;;24.08;65.85;98959.84;5094607;28;8822;-57
2023/10/13 10:18:42;;;;;;;;;12.00;9.40;;;;;24.17;64.53;98961.16;5094984;28;8830;-58
2023/10/13 10:21:11;;;;;;;;;7.60;7.20;;;;;24.14;64.31;98975.25;5094870;28;8834;-58
2023/10/13 10:23:40;;;;;;;;;8.60;8.60;;;;;24.17;63.61;98955.72;5094225;28;8864;-57
2023/10/13 10:26:11;;;;;;;;;8.40;8.00;;;;;24.37;63.17;98958.97;5094262;28;8810;-59
2023/10/13 10:28:41;;;;;;;;;8.40;8.00;;;;;24.67;62.64;98962.47;5095312;28;8838;-58
2023/10/13 10:31:12;;;;;;;;;7.60;6.80;;;;;25.03;61.00;98935.00;5094355;28;8838;-59
2023/10/13 10:33:41;;;;;;;;;8.00;8.00;;;;;25.35;60.89;98958.09;5100922;28;8892;-59
2023/10/13 10:36:14;;;;;;;;;6.40;5.20;;;;;25.59;59.79;98955.88;5101197;28;8838;-59
2023/10/13 10:38:42;;;;;;;;;9.20;8.00;;;;;25.48;59.99;98952.38;5083549;28;8898;-58
2023/10/13 10:41:13;;;;;;;;;9.20;9.00;;;;;25.14;60.84;98955.94;5105395;28;8949;-58
2023/10/13 10:43:45;;;;;;;;;7.20;6.40;;;;;24.84;61.24;98958.81;5093577;28;8903;-59
2023/10/13 10:46:13;;;;;;;;;6.80;6.00;;;;;24.77;61.06;98958.09;5092599;28;8944;-59
2023/10/13 10:48:45;;;;;;;;;10.60;10.60;;;;;24.92;60.69;98960.34;5094100;28;8851;-58
2023/10/13 10:51:21;;;;;;;;;9.40;9.40;;;;;24.95;60.96;98951.72;5094202;28;8922;-58
2023/10/13 10:53:49;;;;;;;;;9.60;9.60;;;;;25.07;60.75;98957.97;5094488;28;9717;-60
2023/10/13 10:56:36;;;;;;;;;9.00;7.20;;;;;24.95;60.57;98941.63;5094012;28;8846;-59
2023/10/13 10:59:05;;;;;;;;;10.60;9.60;;;;;24.80;60.79;98968.53;5093709;28;8899;-58
2023/10/13 11:01:38;;;;;;;;;12.20;9.40;;;;;24.64;60.98;98941.19;5093710;28;8830;-59
2023/10/13 11:04:14;;;;;;;;;11.40;9.80;;;;;24.49;61.17;98929.88;5092813;28;8983;-57
2023/10/13 11:06:45;;;;;;;;;10.00;9.60;;;;;24.38;61.38;98912.47;5092583;28;8927;-59
2023/10/13 11:09:21;;;;;;;;;6.20;5.20;;;;;24.49;61.13;98894.50;5092354;28;8830;-58
2023/10/13 11:11:52;;;;;;;;;9.20;8.80;;;;;24.77;60.18;98902.78;5091877;28;8873;-61
2023/10/13 11:14:22;;;;;;;;;11.20;9.20;;;;;25.06;59.19;98912.72;5092041;28;8850;-58
2023/10/13 11:16:54;;;;;;;;;13.20;10.60;;;;;25.34;58.65;98904.63;5092111;28;8842;-59
2023/10/13 11:19:28;;;;;;;;;11.00;10.60;;;;;25.57;57.99;98904.56;5092065;28;8822;-58
2023/10/13 11:21:56;;;;;;;;;6.80;6.20;;;;;25.81;57.07;98896.03;5093136;28;8870;-59
2023/10/13 11:24:25;;;;;;;;;9.00;7.00;;;;;26.17;56.63;98915.56;5093467;28;8846;-60
2023/10/13 11:26:54;;;;;;;;;10.20;9.00;;;;;26.47;55.60;98896.09;5093239;28;8838;-59
2023/10/13 11:29:23;;;;;;;;;7.00;6.80;;;;;26.68;55.95;98884.44;5093164;28;8870;-60
2023/10/13 11:31:59;;;;;;;;;9.00;7.80;;;;;26.86;55.50;98881.44;5092915;28;8844;-59
2023/10/13 11:34:39;;;;;;;;;9.40;7.00;;;;;26.62;55.61;98872.63;5092656;28;8892;-59
2023/10/13 11:39:51;;;;;;;;;7.20;7.00;;;;;26.07;56.68;98904.47;5096400;28;9473;-58
2023/10/13 11:42:19;;;;;;;;;9.20;8.40;;;;;26.01;57.00;98878.16;5113787;28;8913;-59
2023/10/13 11:44:46;;;;;;;;;8.80;8.80;;;;;25.79;57.70;98881.78;5112931;28;8830;-59
2023/10/13 11:49:59;;;;;;;;;11.60;10.00;;;;;25.31;58.57;98875.09;5091841;28;8903;-60
2023/10/13 11:52:29;;;;;;;;;11.60;10.20;;;;;25.12;58.29;98862.69;5092369;28;8915;-59
2023/10/13 11:54:56;;;;;;;;;14.80;13.00;;;;;25.06;58.60;98858.22;5093537;28;8949;-59
2023/10/13 11:57:24;;;;;;;;;11.80;10.20;;;;;24.96;59.08;98842.47;5107079;28;8818;-59
2023/10/13 12:00:16;;;;;;;;;9.40;8.60;;;;;24.85;58.51;98843.31;5096435;28;8818;-59
2023/10/13 12:05:48;;;;;;;;;9.60;6.80;;;;;24.84;58.61;98817.16;5096584;28;8873;-59
2023/10/13 12:08:22;;;;;;;;;12.00;9.00;;;;;24.74;58.65;98843.34;5097086;28;8860;-59
2023/10/13 12:10:59;;;;;;;;;8.60;8.40;;;;;24.69;59.05;98843.22;5096874;28;9527;-58
2023/10/13 12:13:28;;;;;;;;;10.20;10.00;;;;;24.50;59.15;98834.34;5096539;28;8841;-59
2023/10/13 12:15:57;;;;;;;;;10.20;9.60;;;;;24.44;59.70;98827.09;5097131;28;8846;-59
2023/10/13 12:18:27;;;;;;;;;9.40;8.20;;;;;24.45;59.37;98822.50;5095810;28;8954;-58
2023/10/13 12:20:57;;;;;;;;;9.80;9.60;;;;;24.76;58.91;98811.25;5096343;28;8919;-59
2023/10/13 12:23:31;;;;;;;;;10.40;9.20;;;;;25.38;57.49;98797.56;5097308;28;8826;-61
2023/10/13 12:26:00;;;;;;;;;9.20;9.00;;;;;25.85;56.76;98809.88;5096057;28;8838;-59
2023/10/13 12:28:30;;;;;;;;;9.40;9.20;;;;;25.98;55.95;98794.03;5095702;28;8978;-59
2023/10/13 12:31:03;;;;;;;;;7.80;7.80;;;;;26.14;56.13;98800.56;5094987;28;8851;-59
2023/10/13 12:33:37;;;;;;;;;12.20;10.80;;;;;26.43;55.36;98789.25;5097078;28;8937;-59
2023/10/13 12:36:06;;;;;;;;;10.80;7.20;;;;;26.66;54.72;98801.91;5096423;28;8974;-59
2023/10/13 12:48:55;;;;;;;;;9.80;9.80;;;;;26.22;56.04;98809.16;5095400;28;8818;-59
2023/10/13 12:52:45;;;;;;;;;7.00;7.00;;;;;25.45;57.36;98778.31;5092158;28;8846;-59
2023/10/13 12:55:15;;;;;;;;;7.00;7.00;;;;;25.15;57.51;98780.44;5101490;28;8838;-59
2023/10/13 12:57:44;;;;;;;;;6.40;5.20;;;;;24.92;58.55;98775.91;5116142;28;8812;-60
2023/10/13 13:00:21;;;;;;;;;12.20;9.00;;;;;24.79;58.32;98792.53;5109472;28;9488;-60
2023/10/13 13:02:55;;;;;;;;;7.00;5.20;;;;;24.63;58.51;98778.81;5096457;28;8944;-59
2023/10/13 13:05:28;;;;;;;;;11.00;8.60;;;;;24.50;59.02;98770.91;5094680;28;8818;-60
2023/10/13 13:08:00;;;;;;;;;7.40;7.00;;;;;24.38;58.83;98776.34;5094347;28;8830;-59
2023/10/13 13:10:36;;;;;;;;;7.20;6.80;;;;;24.28;59.48;98778.81;5096581;28;8840;-59
2023/10/13 13:13:05;;;;;;;;;7.80;7.80;;;;;24.21;59.25;98799.09;5095835;28;8892;-59
2023/10/13 13:15:33;;;;;;;;;10.00;9.20;;;;;24.20;58.83;98779.19;5113715;28;8844;-59
2023/10/13 13:18:09;;;;;;;;;12.00;10.00;;;;;24.19;59.20;98753.03;5098398;28;8878;-58
2023/10/13 13:20:39;;;;;;;;;9.20;9.00;;;;;24.21;59.42;98789.00;5095139;28;8846;-58
2023/10/13 13:23:07;;;;;;;;;1.00;1.00;;;;;24.21;58.58;98780.03;5094899;28;8965;-58
2023/10/13 13:25:42;;;;;;;;;7.60;6.00;;;;;24.14;59.32;98782.88;5093650;28;8868;-59
2023/10/13 13:28:11;;;;;;;;;10.40;9.00;;;;;24.09;58.97;98777.31;5093436;28;8869;-59
2023/10/13 13:30:39;;;;;;;;;4.40;3.80;;;;;24.05;58.95;98787.00;5094953;28;8837;-57
2023/10/13 13:33:12;;;;;;;;;10.80;10.00;;;;;24.02;59.28;98746.66;5095266;28;8846;-58
2023/10/13 13:35:42;;;;;;;;;10.00;10.00;;;;;23.99;59.33;98773.53;5094495;28;8899;-58
2023/10/13 13:38:22;;;;;;;;;6.60;6.60;;;;;23.98;59.40;98766.44;5094932;28;8825;-59
2023/10/13 13:40:53;;;;;;;;;6.00;5.00;;;;;23.98;59.43;98763.72;5095078;28;8958;-58
2023/10/13 13:43:50;;;;;;;;;9.40;6.80;;;;;24.00;58.92;98769.72;5094652;28;8830;-59
2023/10/13 13:46:19;;;;;;;;;5.40;5.40;;;;;24.04;59.29;98765.50;5095025;28;8838;-59
2023/10/13 13:48:48;;;;;;;;;9.00;9.00;;;;;24.03;58.93;98769.25;5099867;28;8946;-60
2023/10/13 13:51:19;;;;;;;;;9.00;5.60;;;;;24.01;58.77;98765.94;5115532;28;8998;-59
2023/10/13 13:53:48;;;;;;;;;8.00;8.00;;;;;23.99;58.84;98773.53;5115528;28;8908;-59
2023/10/13 13:56:18;;;;;;;;;9.60;8.80;;;;;23.97;58.88;98772.94;5115661;28;9508;-59